createdAt,value
2018-08-07T00:00:39.003Z,936.60
2018-08-07T00:01:38.952Z,936.63
2018-08-07T00:02:38.909Z,936.61
2018-08-07T00:03:38.858Z,936.62
2018-08-07T00:04:38.809Z,936.64
2018-08-07T00:05:38.762Z,936.64
2018-08-07T00:06:38.708Z,936.66
2018-08-07T00:07:38.666Z,936.73
2018-08-07T00:08:38.624Z,936.79
2018-08-07T00:09:38.571Z,936.85
2018-08-07T00:10:38.523Z,936.92
2018-08-07T00:11:38.480Z,936.96
2018-08-07T00:12:38.414Z,936.96
2018-08-07T00:13:38.380Z,936.92
2018-08-07T00:14:38.332Z,936.95
2018-08-07T00:15:38.283Z,936.92
2018-08-07T00:16:38.236Z,936.91
2018-08-07T00:17:38.188Z,936.93
2018-08-07T00:18:38.149Z,936.92
2018-08-07T00:19:38.093Z,936.92
2018-08-07T00:20:38.059Z,936.81
2018-08-07T00:21:37.997Z,936.69
2018-08-07T00:22:37.954Z,936.66
2018-08-07T00:23:37.904Z,936.63
2018-08-07T00:24:37.857Z,936.60
2018-08-07T00:25:37.818Z,936.59
2018-08-07T00:26:37.757Z,936.58
2018-08-07T00:27:37.720Z,936.59
2018-08-07T00:28:37.660Z,936.51
2018-08-07T00:29:37.616Z,936.50
2018-08-07T00:30:37.551Z,936.43
2018-08-07T00:31:37.517Z,936.35
2018-08-07T00:32:37.469Z,936.33
2018-08-07T00:33:37.421Z,936.45
2018-08-07T00:34:37.373Z,936.46
2018-08-07T00:35:37.343Z,936.48
2018-08-07T00:36:37.293Z,936.37
2018-08-07T00:37:37.232Z,936.26
2018-08-07T00:38:37.181Z,936.20
2018-08-07T00:39:37.139Z,936.19
2018-08-07T00:40:37.089Z,936.19
2018-08-07T00:41:37.027Z,936.06
2018-08-07T00:42:36.974Z,936.02
2018-08-07T00:43:36.942Z,936.03
2018-08-07T00:44:36.896Z,936.06
2018-08-07T00:45:36.844Z,936.08
2018-08-07T00:46:36.798Z,936.22
2018-08-07T00:47:36.759Z,936.35
2018-08-07T00:48:36.706Z,936.47
2018-08-07T00:49:36.654Z,936.54
2018-08-07T00:50:36.609Z,936.53
2018-08-07T00:51:36.559Z,936.66
2018-08-07T00:52:36.499Z,936.70
2018-08-07T00:53:36.466Z,936.63
2018-08-07T00:54:36.415Z,936.54
2018-08-07T00:55:36.371Z,936.52
2018-08-07T00:56:36.325Z,936.55
2018-08-07T00:57:36.276Z,936.59
2018-08-07T00:58:36.225Z,936.68
2018-08-07T00:59:36.176Z,936.66
2018-08-07T01:00:36.132Z,936.55
2018-08-07T01:01:36.091Z,936.42
2018-08-07T01:02:36.033Z,936.26
2018-08-07T01:03:35.989Z,936.10
2018-08-07T01:04:35.941Z,936.00
2018-08-07T01:05:35.893Z,935.90
2018-08-07T01:06:35.838Z,935.98
2018-08-07T01:07:35.798Z,936.20
2018-08-07T01:08:35.746Z,936.43
2018-08-07T01:09:35.698Z,936.65
2018-08-07T01:10:35.650Z,936.78
2018-08-07T01:11:35.605Z,936.80
2018-08-07T01:12:35.554Z,936.76
2018-08-07T01:13:35.508Z,936.71
2018-08-07T01:14:35.467Z,936.62
2018-08-07T01:15:35.416Z,936.63
2018-08-07T01:16:35.364Z,936.63
2018-08-07T01:17:35.331Z,936.60
2018-08-07T01:18:35.269Z,936.58
2018-08-07T01:19:35.220Z,936.55
2018-08-07T01:20:35.172Z,936.52
2018-08-07T01:21:35.140Z,936.46
2018-08-07T01:22:35.077Z,936.39
2018-08-07T01:23:35.028Z,936.31
2018-08-07T01:24:34.980Z,936.33
2018-08-07T01:25:34.937Z,936.30
2018-08-07T01:26:34.886Z,936.37
2018-08-07T01:27:34.837Z,936.41
2018-08-07T01:28:34.795Z,936.43
2018-08-07T01:29:34.743Z,936.39
2018-08-07T01:30:34.795Z,936.32
2018-08-07T01:31:34.630Z,936.19
2018-08-07T01:32:34.600Z,936.18
2018-08-07T01:33:34.554Z,936.21
2018-08-07T01:34:34.508Z,936.27
2018-08-07T01:35:34.459Z,936.33
2018-08-07T01:36:34.408Z,936.34
2018-08-07T01:37:34.359Z,936.43
2018-08-07T01:38:34.313Z,936.50
2018-08-07T01:39:34.271Z,936.51
2018-08-07T01:40:34.221Z,936.55
2018-08-07T01:41:34.169Z,936.51
2018-08-07T01:42:34.121Z,936.55
2018-08-07T01:43:34.073Z,936.49
2018-08-07T01:44:34.041Z,936.50
2018-08-07T01:45:33.984Z,936.44
2018-08-07T01:46:33.934Z,936.41
2018-08-07T01:47:33.885Z,936.39
2018-08-07T01:48:33.834Z,936.45
2018-08-07T01:49:33.785Z,936.47
2018-08-07T01:50:33.743Z,936.44
2018-08-07T01:51:33.689Z,936.46
2018-08-07T01:52:33.644Z,936.53
2018-08-07T01:53:33.600Z,936.56
2018-08-07T01:54:33.562Z,936.55
2018-08-07T01:55:33.504Z,936.48
2018-08-07T01:56:33.467Z,936.44
2018-08-07T01:57:33.406Z,936.41
2018-08-07T01:58:33.357Z,936.35
2018-08-07T01:59:33.309Z,936.38
2018-08-07T02:00:33.273Z,936.38
2018-08-07T02:01:33.213Z,936.38
2018-08-07T02:02:33.168Z,936.35
2018-08-07T02:03:33.117Z,936.25
2018-08-07T02:04:33.070Z,936.25
2018-08-07T02:05:33.006Z,936.27
2018-08-07T02:06:32.973Z,936.18
2018-08-07T02:07:32.932Z,936.18
2018-08-07T02:08:32.889Z,936.14
2018-08-07T02:09:32.834Z,936.12
2018-08-07T02:10:32.781Z,936.09
2018-08-07T02:11:32.739Z,936.05
2018-08-07T02:12:32.689Z,936.06
2018-08-07T02:13:32.641Z,935.98
2018-08-07T02:14:32.607Z,935.98
2018-08-07T02:15:32.550Z,935.93
2018-08-07T02:16:32.499Z,935.94
2018-08-07T02:17:32.445Z,935.83
2018-08-07T02:18:32.413Z,935.83
2018-08-07T02:19:32.351Z,935.79
2018-08-07T02:20:32.302Z,935.73
2018-08-07T02:21:32.258Z,935.69
2018-08-07T02:22:32.209Z,935.75
2018-08-07T02:23:32.166Z,935.77
2018-08-07T02:24:32.109Z,935.78
2018-08-07T02:25:32.066Z,935.79
2018-08-07T02:26:32.018Z,935.80
2018-08-07T02:27:31.966Z,935.75
2018-08-07T02:28:31.901Z,935.74
2018-08-07T02:29:31.878Z,935.68
2018-08-07T02:30:31.833Z,935.69
2018-08-07T02:31:31.775Z,935.70
2018-08-07T02:32:31.736Z,935.68
2018-08-07T02:33:31.660Z,935.62
2018-08-07T02:34:31.645Z,935.63
2018-08-07T02:35:31.582Z,935.55
2018-08-07T02:36:31.531Z,935.53
2018-08-07T02:37:31.499Z,935.47
2018-08-07T02:38:31.447Z,935.51
2018-08-07T02:39:31.370Z,935.48
2018-08-07T02:40:31.344Z,935.50
2018-08-07T02:41:31.294Z,935.45
2018-08-07T02:42:31.242Z,935.52
2018-08-07T02:43:31.197Z,935.56
2018-08-07T02:44:31.145Z,935.58
2018-08-07T02:45:31.114Z,935.64
2018-08-07T02:46:31.050Z,935.61
2018-08-07T02:47:30.985Z,935.59
2018-08-07T02:48:30.953Z,935.61
2018-08-07T02:49:30.906Z,935.60
2018-08-07T02:50:30.862Z,935.61
2018-08-07T02:51:30.794Z,935.62
2018-08-07T02:52:30.762Z,935.61
2018-08-07T02:53:30.717Z,935.60
2018-08-07T02:54:30.666Z,935.63
2018-08-07T02:55:30.621Z,935.60
2018-08-07T02:56:30.573Z,935.58
2018-08-07T02:57:30.522Z,935.55
2018-08-07T02:58:30.475Z,935.54
2018-08-07T02:59:30.428Z,935.59
2018-08-07T03:00:30.381Z,935.68
2018-08-07T03:01:30.343Z,935.61
2018-08-07T03:02:30.285Z,935.61
2018-08-07T03:03:30.240Z,935.61
2018-08-07T03:04:30.182Z,935.58
2018-08-07T03:05:30.138Z,935.63
2018-08-07T03:06:30.134Z,935.60
2018-08-07T03:07:30.042Z,935.63
2018-08-07T03:08:29.980Z,935.68
2018-08-07T03:09:29.948Z,935.61
2018-08-07T03:10:29.902Z,935.64
2018-08-07T03:11:29.850Z,935.63
2018-08-07T03:12:29.806Z,935.63
2018-08-07T03:13:29.754Z,935.59
2018-08-07T03:14:29.722Z,935.59
2018-08-07T03:15:29.721Z,935.60
2018-08-07T03:16:29.610Z,935.56
2018-08-07T03:17:29.571Z,935.58
2018-08-07T03:18:29.514Z,935.58
2018-08-07T03:19:29.469Z,935.58
2018-08-07T03:20:29.418Z,935.57
2018-08-07T03:21:29.375Z,935.55
2018-08-07T03:22:29.322Z,935.51
2018-08-07T03:23:29.273Z,935.51
2018-08-07T03:24:29.227Z,935.47
2018-08-07T03:25:29.178Z,935.50
2018-08-07T03:26:29.130Z,935.51
2018-08-07T03:27:29.081Z,935.54
2018-08-07T03:28:29.046Z,935.47
2018-08-07T03:29:28.989Z,935.48
2018-08-07T03:30:28.941Z,935.49
2018-08-07T03:31:28.888Z,935.54
2018-08-07T03:32:28.855Z,935.62
2018-08-07T03:33:28.795Z,935.64
2018-08-07T03:34:28.749Z,935.61
2018-08-07T03:35:28.895Z,935.56
2018-08-07T03:36:28.649Z,935.61
2018-08-07T03:37:28.587Z,935.62
2018-08-07T03:38:28.567Z,935.68
2018-08-07T03:39:28.505Z,935.70
2018-08-07T03:40:28.455Z,935.68
2018-08-07T03:41:28.608Z,935.70
2018-08-07T03:42:28.393Z,935.68
2018-08-07T03:43:28.314Z,935.70
2018-08-07T03:44:28.273Z,935.73
2018-08-07T03:45:28.227Z,935.71
2018-08-07T03:46:28.166Z,935.69
2018-08-07T03:47:28.301Z,935.74
2018-08-07T03:48:28.068Z,935.77
2018-08-07T03:49:28.026Z,935.75
2018-08-07T03:50:27.973Z,935.78
2018-08-07T03:51:27.927Z,935.70
2018-08-07T03:52:27.882Z,935.67
2018-08-07T03:53:28.032Z,935.68
2018-08-07T03:54:27.778Z,935.64
2018-08-07T03:55:27.734Z,935.64
2018-08-07T03:56:27.683Z,935.70
2018-08-07T03:57:27.634Z,935.64
2018-08-07T03:58:27.590Z,935.63
2018-08-07T03:59:27.535Z,935.57
2018-08-07T04:00:27.493Z,935.56
2018-08-07T04:01:27.444Z,935.59
2018-08-07T04:02:27.390Z,935.58
2018-08-07T04:03:27.343Z,935.59
2018-08-07T04:04:27.300Z,935.60
2018-08-07T04:05:27.453Z,935.61
2018-08-07T04:06:27.201Z,935.61
2018-08-07T04:07:27.149Z,935.60
2018-08-07T04:08:27.102Z,935.59
2018-08-07T04:09:27.059Z,935.59
2018-08-07T04:10:26.984Z,935.60
2018-08-07T04:11:27.139Z,935.57
2018-08-07T04:12:26.908Z,935.60
2018-08-07T04:13:26.858Z,935.60
2018-08-07T04:14:26.815Z,935.60
2018-08-07T04:15:26.760Z,935.59
2018-08-07T04:16:26.712Z,935.53
2018-08-07T04:17:26.665Z,935.52
2018-08-07T04:18:26.629Z,935.49
2018-08-07T04:19:26.568Z,935.46
2018-08-07T04:20:26.520Z,935.40
2018-08-07T04:21:26.472Z,935.36
2018-08-07T04:22:26.421Z,935.33
2018-08-07T04:23:26.376Z,935.38
2018-08-07T04:24:26.330Z,935.31
2018-08-07T04:25:26.302Z,935.40
2018-08-07T04:26:26.227Z,935.43
2018-08-07T04:27:26.181Z,935.49
2018-08-07T04:28:26.158Z,935.44
2018-08-07T04:29:26.286Z,935.47
2018-08-07T04:30:26.045Z,935.53
2018-08-07T04:31:25.986Z,935.51
2018-08-07T04:32:25.942Z,935.53
2018-08-07T04:33:25.870Z,935.52
2018-08-07T04:34:25.973Z,935.56
2018-08-07T04:35:25.794Z,935.56
2018-08-07T04:36:25.756Z,935.57
2018-08-07T04:37:25.704Z,935.53
2018-08-07T04:38:25.643Z,935.53
2018-08-07T04:39:25.595Z,935.52
2018-08-07T04:40:25.547Z,935.52
2018-08-07T04:41:25.704Z,935.50
2018-08-07T04:42:25.450Z,935.42
2018-08-07T04:43:25.401Z,935.43
2018-08-07T04:44:25.357Z,935.36
2018-08-07T04:45:25.316Z,935.23
2018-08-07T04:46:25.236Z,935.25
2018-08-07T04:47:25.414Z,935.29
2018-08-07T04:48:25.157Z,935.21
2018-08-07T04:49:25.112Z,935.27
2018-08-07T04:50:25.075Z,935.25
2018-08-07T04:51:25.015Z,935.23
2018-08-07T04:52:24.966Z,935.20
2018-08-07T04:53:25.099Z,935.21
2018-08-07T04:54:24.865Z,935.23
2018-08-07T04:55:24.828Z,935.21
2018-08-07T04:56:24.768Z,935.21
2018-08-07T04:57:24.723Z,935.11
2018-08-07T04:58:24.654Z,935.05
2018-08-07T04:59:24.820Z,935.07
2018-08-07T05:00:24.577Z,935.07
2018-08-07T05:01:24.528Z,935.06
2018-08-07T05:02:24.474Z,935.05
2018-08-07T05:03:24.411Z,935.03
2018-08-07T05:04:24.380Z,935.06
2018-08-07T05:05:24.330Z,935.01
2018-08-07T05:06:24.296Z,935.02
2018-08-07T05:07:24.236Z,935.03
2018-08-07T05:08:24.183Z,934.97
2018-08-07T05:09:24.123Z,935.01
2018-08-07T05:10:24.143Z,935.00
2018-08-07T05:11:24.041Z,935.01
2018-08-07T05:12:24.003Z,934.96
2018-08-07T05:13:23.925Z,935.01
2018-08-07T05:14:23.892Z,935.04
2018-08-07T05:15:23.843Z,935.01
2018-08-07T05:16:23.796Z,934.96
2018-08-07T05:17:23.948Z,935.01
2018-08-07T05:18:23.698Z,935.06
2018-08-07T05:19:23.656Z,935.06
2018-08-07T05:20:23.612Z,935.09
2018-08-07T05:21:23.550Z,935.14
2018-08-07T05:22:23.530Z,935.15
2018-08-07T05:23:23.665Z,935.13
2018-08-07T05:24:23.405Z,935.13
2018-08-07T05:25:23.356Z,935.15
2018-08-07T05:26:23.312Z,935.15
2018-08-07T05:27:23.264Z,935.13
2018-08-07T05:28:23.212Z,935.14
2018-08-07T05:29:23.367Z,935.12
2018-08-07T05:30:23.114Z,935.13
2018-08-07T05:31:23.068Z,935.12
2018-08-07T05:32:23.015Z,935.06
2018-08-07T05:33:22.973Z,935.06
2018-08-07T05:34:22.901Z,935.06
2018-08-07T05:35:22.876Z,935.08
2018-08-07T05:36:22.832Z,935.11
2018-08-07T05:37:22.773Z,935.19
2018-08-07T05:38:22.726Z,935.13
2018-08-07T05:39:22.678Z,935.16
2018-08-07T05:40:22.614Z,935.14
2018-08-07T05:41:22.780Z,935.13
2018-08-07T05:42:22.558Z,935.09
2018-08-07T05:43:22.481Z,935.10
2018-08-07T05:44:22.441Z,935.05
2018-08-07T05:45:22.403Z,935.07
2018-08-07T05:46:22.339Z,935.09
2018-08-07T05:47:22.487Z,935.08
2018-08-07T05:48:22.220Z,935.11
2018-08-07T05:49:22.189Z,935.10
2018-08-07T05:50:22.349Z,935.12
2018-08-07T05:51:22.120Z,935.01
2018-08-07T05:52:22.036Z,934.94
2018-08-07T05:53:22.178Z,934.94
2018-08-07T05:54:21.946Z,934.86
2018-08-07T05:55:21.898Z,934.86
2018-08-07T05:56:21.866Z,934.79
2018-08-07T05:57:21.800Z,934.82
2018-08-07T05:58:21.757Z,934.84
2018-08-07T05:59:21.708Z,934.85
2018-08-07T06:00:21.658Z,934.86
2018-08-07T06:01:21.610Z,934.87
2018-08-07T06:02:21.568Z,934.88
2018-08-07T06:03:21.513Z,934.93
2018-08-07T06:04:21.464Z,934.95
2018-08-07T06:05:21.417Z,935.03
2018-08-07T06:06:21.363Z,934.99
2018-08-07T06:07:21.317Z,934.99
2018-08-07T06:08:21.270Z,934.97
2018-08-07T06:09:21.217Z,934.98
2018-08-07T06:10:21.172Z,934.93
2018-08-07T06:11:21.123Z,934.86
2018-08-07T06:12:21.072Z,934.84
2018-08-07T06:13:21.025Z,934.82
2018-08-07T06:14:20.975Z,934.81
2018-08-07T06:15:20.925Z,934.78
2018-08-07T06:16:20.892Z,934.72
2018-08-07T06:17:20.828Z,934.75
2018-08-07T06:18:20.783Z,934.74
2018-08-07T06:19:20.731Z,934.72
2018-08-07T06:20:20.693Z,934.72
2018-08-07T06:21:20.636Z,934.71
2018-08-07T06:22:20.586Z,934.74
2018-08-07T06:23:20.737Z,934.70
2018-08-07T06:24:20.490Z,934.71
2018-08-07T06:25:20.442Z,934.70
2018-08-07T06:26:20.408Z,934.68
2018-08-07T06:27:20.347Z,934.65
2018-08-07T06:28:20.309Z,934.68
2018-08-07T06:29:20.230Z,934.64
2018-08-07T06:30:20.200Z,934.63
2018-08-07T06:31:20.174Z,934.68
2018-08-07T06:32:20.111Z,934.70
2018-08-07T06:33:20.057Z,934.67
2018-08-07T06:34:20.018Z,934.64
2018-08-07T06:35:19.957Z,934.68
2018-08-07T06:36:19.891Z,934.64
2018-08-07T06:37:19.860Z,934.61
2018-08-07T06:38:19.810Z,934.60
2018-08-07T06:39:19.763Z,934.58
2018-08-07T06:40:19.753Z,934.58
2018-08-07T06:41:19.870Z,934.57
2018-08-07T06:42:19.618Z,934.57
2018-08-07T06:43:19.571Z,934.55
2018-08-07T06:44:19.519Z,934.53
2018-08-07T06:45:19.460Z,934.54
2018-08-07T06:46:19.423Z,934.52
2018-08-07T06:47:19.356Z,934.50
2018-08-07T06:48:19.334Z,934.49
2018-08-07T06:49:19.277Z,934.49
2018-08-07T06:50:19.297Z,934.48
2018-08-07T06:51:19.161Z,934.48
2018-08-07T06:52:19.133Z,934.49
2018-08-07T06:53:19.284Z,934.48
2018-08-07T06:54:19.039Z,934.48
2018-08-07T06:55:18.992Z,934.51
2018-08-07T06:56:18.942Z,934.52
2018-08-07T06:57:18.884Z,934.54
2018-08-07T06:58:18.841Z,934.55
2018-08-07T06:59:18.792Z,934.61
2018-08-07T07:00:18.754Z,934.55
2018-08-07T07:01:18.698Z,934.61
2018-08-07T07:02:18.647Z,934.62
2018-08-07T07:03:18.599Z,934.64
2018-08-07T07:04:18.550Z,934.60
2018-08-07T07:05:18.526Z,934.60
2018-08-07T07:06:18.468Z,934.65
2018-08-07T07:07:18.412Z,934.62
2018-08-07T07:08:18.367Z,934.61
2018-08-07T07:09:18.335Z,934.59
2018-08-07T07:10:18.254Z,934.55
2018-08-07T07:11:18.416Z,934.60
2018-08-07T07:12:18.168Z,934.59
2018-08-07T07:13:18.114Z,934.65
2018-08-07T07:14:18.056Z,934.64
2018-08-07T07:15:18.013Z,934.66
2018-08-07T07:16:17.968Z,934.66
2018-08-07T07:17:18.129Z,934.66
2018-08-07T07:18:17.871Z,934.68
2018-08-07T07:19:17.824Z,934.68
2018-08-07T07:20:17.776Z,934.64
2018-08-07T07:21:17.730Z,934.64
2018-08-07T07:22:17.683Z,934.69
2018-08-07T07:23:17.833Z,934.64
2018-08-07T07:24:17.586Z,934.70
2018-08-07T07:25:17.534Z,934.71
2018-08-07T07:26:17.486Z,934.74
2018-08-07T07:27:17.421Z,934.73
2018-08-07T07:28:17.391Z,934.71
2018-08-07T07:29:17.342Z,934.73
2018-08-07T07:30:17.296Z,934.74
2018-08-07T07:31:17.245Z,934.77
2018-08-07T07:32:17.191Z,934.82
2018-08-07T07:33:17.155Z,934.81
2018-08-07T07:34:17.199Z,934.90
2018-08-07T07:35:17.246Z,934.95
2018-08-07T07:36:16.987Z,935.00
2018-08-07T07:37:16.950Z,935.11
2018-08-07T07:38:16.906Z,935.07
2018-08-07T07:39:16.858Z,935.13
2018-08-07T07:40:16.802Z,935.05
2018-08-07T07:41:16.958Z,935.09
2018-08-07T07:42:16.693Z,935.05
2018-08-07T07:43:16.657Z,935.08
2018-08-07T07:44:16.627Z,935.07
2018-08-07T07:45:16.567Z,935.03
2018-08-07T07:46:16.513Z,935.02
2018-08-07T07:47:16.486Z,934.98
2018-08-07T07:48:16.416Z,935.00
2018-08-07T07:49:16.369Z,934.96
2018-08-07T07:50:16.326Z,935.02
2018-08-07T07:51:16.268Z,934.98
2018-08-07T07:52:16.224Z,935.00
2018-08-07T07:53:16.376Z,935.10
2018-08-07T07:54:16.125Z,935.13
2018-08-07T07:55:16.080Z,935.13
2018-08-07T07:56:16.015Z,935.05
2018-08-07T07:57:15.979Z,934.99
2018-08-07T07:58:15.936Z,934.93
2018-08-07T07:59:15.885Z,934.96
2018-08-07T08:00:15.844Z,934.93
2018-08-07T08:01:15.789Z,934.96
2018-08-07T08:02:15.750Z,934.96
2018-08-07T08:03:15.693Z,935.05
2018-08-07T08:04:15.638Z,935.04
2018-08-07T08:05:15.861Z,935.06
2018-08-07T08:06:15.545Z,935.05
2018-08-07T08:07:15.478Z,935.09
2018-08-07T08:08:15.448Z,935.09
2018-08-07T08:09:15.399Z,935.11
2018-08-07T08:10:15.358Z,935.22
2018-08-07T08:11:15.512Z,935.22
2018-08-07T08:12:15.262Z,935.21
2018-08-07T08:13:15.201Z,935.24
2018-08-07T08:14:15.155Z,935.27
2018-08-07T08:15:15.107Z,935.26
2018-08-07T08:16:15.054Z,935.19
2018-08-07T08:17:14.990Z,935.17
2018-08-07T08:18:14.960Z,935.17
2018-08-07T08:19:14.908Z,935.23
2018-08-07T08:20:14.858Z,935.19
2018-08-07T08:21:14.811Z,935.21
2018-08-07T08:22:14.765Z,935.18
2018-08-07T08:23:14.915Z,935.19
2018-08-07T08:24:14.668Z,935.21
2018-08-07T08:25:14.631Z,935.24
2018-08-07T08:26:14.567Z,935.25
2018-08-07T08:27:14.519Z,935.27
2018-08-07T08:28:14.471Z,935.33
2018-08-07T08:29:14.723Z,935.38
2018-08-07T08:30:14.374Z,935.39
2018-08-07T08:31:14.331Z,935.48
2018-08-07T08:32:14.283Z,935.48
2018-08-07T08:33:14.226Z,935.46
2018-08-07T08:34:14.180Z,935.45
2018-08-07T08:35:14.383Z,935.47
2018-08-07T08:36:14.092Z,935.41
2018-08-07T08:37:14.038Z,935.39
2018-08-07T08:38:13.993Z,935.40
2018-08-07T08:39:13.938Z,935.41
2018-08-07T08:40:13.886Z,935.40
2018-08-07T08:41:13.844Z,935.41
2018-08-07T08:42:13.793Z,935.43
2018-08-07T08:43:13.750Z,935.39
2018-08-07T08:44:13.679Z,935.36
2018-08-07T08:45:13.650Z,935.34
2018-08-07T08:46:13.595Z,935.31
2018-08-07T08:47:13.748Z,935.32
2018-08-07T08:48:13.546Z,935.33
2018-08-07T08:49:13.464Z,935.39
2018-08-07T08:50:13.412Z,935.35
2018-08-07T08:51:13.353Z,935.33
2018-08-07T08:52:13.304Z,935.41
2018-08-07T08:53:13.467Z,935.44
2018-08-07T08:54:13.211Z,935.49
2018-08-07T08:55:13.165Z,935.47
2018-08-07T08:56:13.113Z,935.53
2018-08-07T08:57:13.061Z,935.58
2018-08-07T08:58:13.015Z,935.58
2018-08-07T08:59:13.165Z,935.62
2018-08-07T09:00:12.922Z,935.60
2018-08-07T09:01:12.867Z,935.64
2018-08-07T09:02:12.821Z,935.62
2018-08-07T09:03:12.774Z,935.59
2018-08-07T09:04:12.741Z,935.58
2018-08-07T09:05:12.676Z,935.61
2018-08-07T09:06:12.625Z,935.64
2018-08-07T09:07:12.579Z,935.67
2018-08-07T09:08:12.527Z,935.73
2018-08-07T09:09:12.479Z,935.76
2018-08-07T09:10:12.454Z,935.70
2018-08-07T09:11:12.393Z,935.76
2018-08-07T09:12:12.320Z,935.75
2018-08-07T09:13:12.291Z,935.76
2018-08-07T09:14:12.238Z,935.79
2018-08-07T09:15:12.191Z,935.80
2018-08-07T09:16:12.145Z,935.85
2018-08-07T09:17:12.292Z,935.91
2018-08-07T09:18:12.047Z,935.90
2018-08-07T09:19:12.001Z,935.89
2018-08-07T09:20:11.947Z,935.87
2018-08-07T09:21:11.908Z,935.88
2018-08-07T09:22:11.852Z,935.90
2018-08-07T09:23:12.001Z,935.95
2018-08-07T09:24:11.757Z,935.95
2018-08-07T09:25:11.717Z,935.96
2018-08-07T09:26:11.760Z,935.93
2018-08-07T09:27:11.588Z,935.93
2018-08-07T09:28:11.560Z,935.99
2018-08-07T09:29:11.708Z,936.03
2018-08-07T09:30:11.465Z,936.08
2018-08-07T09:31:11.411Z,936.07
2018-08-07T09:32:11.363Z,936.06
2018-08-07T09:33:11.314Z,936.06
2018-08-07T09:34:11.270Z,936.07
2018-08-07T09:35:11.234Z,936.09
2018-08-07T09:36:11.168Z,936.10
2018-08-07T09:37:11.100Z,936.15
2018-08-07T09:38:11.077Z,936.11
2018-08-07T09:39:11.102Z,936.12
2018-08-07T09:40:11.038Z,936.12
2018-08-07T09:41:11.127Z,936.13
2018-08-07T09:42:10.878Z,936.13
2018-08-07T09:43:10.827Z,936.14
2018-08-07T09:44:10.782Z,936.20
2018-08-07T09:45:10.735Z,936.24
2018-08-07T09:46:10.678Z,936.28
2018-08-07T09:47:10.832Z,936.22
2018-08-07T09:48:10.590Z,936.29
2018-08-07T09:49:10.540Z,936.30
2018-08-07T09:50:10.484Z,936.29
2018-08-07T09:51:10.436Z,936.29
2018-08-07T09:52:10.399Z,936.25
2018-08-07T09:53:10.538Z,936.29
2018-08-07T09:54:10.292Z,936.36
2018-08-07T09:55:10.248Z,936.36
2018-08-07T09:56:10.205Z,936.34
2018-08-07T09:57:10.144Z,936.27
2018-08-07T09:58:10.115Z,936.24
2018-08-07T09:59:10.056Z,936.21
2018-08-07T10:00:10.000Z,936.30
2018-08-07T10:01:09.960Z,936.28
2018-08-07T10:02:09.899Z,936.37
2018-08-07T10:03:09.851Z,936.42
2018-08-07T10:04:09.801Z,936.40
2018-08-07T10:05:10.038Z,936.40
2018-08-07T10:06:09.716Z,936.42
2018-08-07T10:07:09.655Z,936.40
2018-08-07T10:08:09.629Z,936.45
2018-08-07T10:09:09.556Z,936.48
2018-08-07T10:10:09.510Z,936.42
2018-08-07T10:11:09.667Z,936.42
2018-08-07T10:12:09.395Z,936.43
2018-08-07T10:13:09.382Z,936.42
2018-08-07T10:14:09.315Z,936.41
2018-08-07T10:15:09.267Z,936.45
2018-08-07T10:16:09.228Z,936.45
2018-08-07T10:17:09.372Z,936.47
2018-08-07T10:18:09.100Z,936.48
2018-08-07T10:19:09.073Z,936.45
2018-08-07T10:20:09.035Z,936.49
2018-08-07T10:21:08.975Z,936.48
2018-08-07T10:22:08.929Z,936.52
2018-08-07T10:23:08.894Z,936.52
2018-08-07T10:24:08.828Z,936.47
2018-08-07T10:25:08.793Z,936.45
2018-08-07T10:26:08.738Z,936.47
2018-08-07T10:27:08.686Z,936.49
2018-08-07T10:28:08.639Z,936.49
2018-08-07T10:29:08.590Z,936.54
2018-08-07T10:30:08.536Z,936.52
2018-08-07T10:31:08.493Z,936.53
2018-08-07T10:32:08.445Z,936.56
2018-08-07T10:33:08.391Z,936.55
2018-08-07T10:34:08.346Z,936.58
2018-08-07T10:35:08.346Z,936.62
2018-08-07T10:36:08.245Z,936.65
2018-08-07T10:37:08.209Z,936.64
2018-08-07T10:38:08.151Z,936.65
2018-08-07T10:39:08.102Z,936.63
2018-08-07T10:40:08.051Z,936.61
2018-08-07T10:41:08.116Z,936.67
2018-08-07T10:42:07.963Z,936.64
2018-08-07T10:43:07.930Z,936.68
2018-08-07T10:44:07.898Z,936.63
2018-08-07T10:45:07.807Z,936.63
2018-08-07T10:46:07.745Z,936.59
2018-08-07T10:47:07.893Z,936.61
2018-08-07T10:48:07.666Z,936.65
2018-08-07T10:49:07.624Z,936.64
2018-08-07T10:50:07.576Z,936.71
2018-08-07T10:51:07.503Z,936.68
2018-08-07T10:52:07.474Z,936.69
2018-08-07T10:53:07.425Z,936.70
2018-08-07T10:54:07.375Z,936.70
2018-08-07T10:55:07.330Z,936.66
2018-08-07T10:56:07.276Z,936.62
2018-08-07T10:57:07.244Z,936.65
2018-08-07T10:58:07.192Z,936.63
2018-08-07T10:59:07.128Z,936.68
2018-08-07T11:00:07.089Z,936.68
2018-08-07T11:01:07.036Z,936.70
2018-08-07T11:02:06.982Z,936.69
2018-08-07T11:03:06.937Z,936.72
2018-08-07T11:04:06.886Z,936.70
2018-08-07T11:05:06.851Z,936.76
2018-08-07T11:06:06.793Z,936.78
2018-08-07T11:07:06.741Z,936.74
2018-08-07T11:08:06.698Z,936.78
2018-08-07T11:09:06.638Z,936.73
2018-08-07T11:10:06.593Z,936.72
2018-08-07T11:11:06.754Z,936.73
2018-08-07T11:12:06.500Z,936.74
2018-08-07T11:13:06.455Z,936.79
2018-08-07T11:14:06.410Z,936.72
2018-08-07T11:15:06.361Z,936.78
2018-08-07T11:16:06.328Z,936.77
2018-08-07T11:17:06.270Z,936.89
2018-08-07T11:18:06.188Z,936.91
2018-08-07T11:19:06.148Z,937.01
2018-08-07T11:20:06.104Z,936.96
2018-08-07T11:21:06.059Z,937.02
2018-08-07T11:22:06.003Z,937.03
2018-08-07T11:23:05.950Z,937.04
2018-08-07T11:24:05.903Z,937.09
2018-08-07T11:25:05.844Z,937.09
2018-08-07T11:26:05.833Z,937.13
2018-08-07T11:27:05.737Z,937.11
2018-08-07T11:28:05.754Z,937.10
2018-08-07T11:29:05.824Z,937.10
2018-08-07T11:30:05.683Z,937.07
2018-08-07T11:31:05.581Z,937.07
2018-08-07T11:32:05.513Z,937.12
2018-08-07T11:33:05.466Z,937.11
2018-08-07T11:34:05.432Z,937.05
2018-08-07T11:35:05.542Z,937.11
2018-08-07T11:36:05.451Z,937.13
2018-08-07T11:37:05.294Z,937.19
2018-08-07T11:38:05.233Z,937.16
2018-08-07T11:39:05.229Z,937.16
2018-08-07T11:40:05.156Z,937.14
2018-08-07T11:41:05.093Z,937.18
2018-08-07T11:42:05.046Z,937.10
2018-08-07T11:43:04.989Z,937.14
2018-08-07T11:44:04.937Z,937.18
2018-08-07T11:45:04.906Z,937.16
2018-08-07T11:46:04.854Z,937.18
2018-08-07T11:47:04.936Z,937.18
2018-08-07T11:48:04.845Z,937.16
2018-08-07T11:49:04.701Z,937.20
2018-08-07T11:50:04.669Z,937.18
2018-08-07T11:51:04.616Z,937.15
2018-08-07T11:52:04.556Z,937.12
2018-08-07T11:53:04.516Z,937.12
2018-08-07T11:54:04.463Z,937.14
2018-08-07T11:55:04.411Z,937.13
2018-08-07T11:56:04.360Z,937.09
2018-08-07T11:57:04.312Z,937.06
2018-08-07T11:58:04.260Z,937.07
2018-08-07T11:59:04.376Z,937.02
2018-08-07T12:00:04.184Z,937.04
2018-08-07T12:01:04.135Z,936.93
2018-08-07T12:02:04.067Z,937.01
2018-08-07T12:03:04.019Z,936.97
2018-08-07T12:04:03.987Z,936.96
2018-08-07T12:05:04.083Z,937.03
2018-08-07T12:06:03.874Z,937.06
2018-08-07T12:07:03.825Z,937.08
2018-08-07T12:08:03.881Z,937.06
2018-08-07T12:09:03.712Z,937.14
2018-08-07T12:10:03.690Z,937.16
2018-08-07T12:11:03.631Z,937.17
2018-08-07T12:12:03.587Z,937.17
2018-08-07T12:13:03.539Z,937.17
2018-08-07T12:14:03.491Z,937.20
2018-08-07T12:15:03.447Z,937.25
2018-08-07T12:16:03.398Z,937.26
2018-08-07T12:17:03.325Z,937.24
2018-08-07T12:18:03.294Z,937.26
2018-08-07T12:19:03.246Z,937.22
2018-08-07T12:20:03.183Z,937.27
2018-08-07T12:21:03.167Z,937.23
2018-08-07T12:22:03.110Z,937.26
2018-08-07T12:23:03.052Z,937.22
2018-08-07T12:24:03.008Z,937.26
2018-08-07T12:25:02.957Z,937.26
2018-08-07T12:26:02.893Z,937.23
2018-08-07T12:27:02.865Z,937.25
2018-08-07T12:28:02.816Z,937.24